sensor_id;sensor_type;location;lat;lon;timestamp;temperature;humidity
1702;DHT22;848;48.354;10.064;2024-02-14T00:00:09;2.90;99.90
1702;DHT22;848;48.354;10.064;2024-02-14T00:02:39;2.90;99.90
1702;DHT22;848;48.354;10.064;2024-02-14T00:05:06;2.90;99.90
1702;DHT22;848;48.354;10.064;2024-02-14T00:07:33;2.90;99.90
1702;DHT22;848;48.354;10.064;2024-02-14T00:10:00;2.80;99.90
1702;DHT22;848;48.354;10.064;2024-02-14T00:12:28;2.80;99.90
1702;DHT22;848;48.354;10.064;2024-02-14T00:14:55;2.70;99.90
1702;DHT22;848;48.354;10.064;2024-02-14T00:17:23;2.70;99.90
1702;DHT22;848;48.354;10.064;2024-02-14T00:19:50;2.70;99.90
1702;DHT22;848;48.354;10.064;2024-02-14T00:22:17;2.60;99.90
1702;DHT22;848;48.354;10.064;2024-02-14T00:24:44;2.60;99.90
1702;DHT22;848;48.354;10.064;2024-02-14T00:27:11;2.60;99.90
1702;DHT22;848;48.354;10.064;2024-02-14T00:29:41;2.60;99.90
1702;DHT22;848;48.354;10.064;2024-02-14T00:32:10;2.60;99.90
1702;DHT22;848;48.354;10.064;2024-02-14T00:34:37;2.50;99.90
1702;DHT22;848;48.354;10.064;2024-02-14T00:37:04;2.60;99.90
1702;DHT22;848;48.354;10.064;2024-02-14T00:39:31;2.50;99.90
1702;DHT22;848;48.354;10.064;2024-02-14T00:41:57;2.50;99.90
1702;DHT22;848;48.354;10.064;2024-02-14T00:44:24;2.50;99.90
1702;DHT22;848;48.354;10.064;2024-02-14T00:46:57;2.50;99.90
1702;DHT22;848;48.354;10.064;2024-02-14T00:49:25;2.70;99.90
1702;DHT22;848;48.354;10.064;2024-02-14T00:51:52;2.50;99.90
1702;DHT22;848;48.354;10.064;2024-02-14T00:54:19;2.50;99.90
1702;DHT22;848;48.354;10.064;2024-02-14T00:56:46;2.50;99.90
1702;DHT22;848;48.354;10.064;2024-02-14T00:59:16;2.50;99.90
1702;DHT22;848;48.354;10.064;2024-02-14T01:01:43;2.40;99.90
1702;DHT22;848;48.354;10.064;2024-02-14T01:04:11;2.40;99.90
1702;DHT22;848;48.354;10.064;2024-02-14T01:06:38;2.50;99.90
1702;DHT22;848;48.354;10.064;2024-02-14T01:09:05;2.60;99.90
1702;DHT22;848;48.354;10.064;2024-02-14T01:11:32;2.60;99.90
1702;DHT22;848;48.354;10.064;2024-02-14T01:13:58;2.60;99.90
1702;DHT22;848;48.354;10.064;2024-02-14T01:16:25;2.70;99.90
1702;DHT22;848;48.354;10.064;2024-02-14T01:18:53;2.70;99.90
1702;DHT22;848;48.354;10.064;2024-02-14T01:21:21;2.70;99.90
1702;DHT22;848;48.354;10.064;2024-02-14T01:23:47;2.70;99.90
1702;DHT22;848;48.354;10.064;2024-02-14T01:26:14;2.80;99.90
1702;DHT22;848;48.354;10.064;2024-02-14T01:28:41;2.90;99.90
1702;DHT22;848;48.354;10.064;2024-02-14T01:31:12;3.10;99.90
1702;DHT22;848;48.354;10.064;2024-02-14T01:33:39;3.20;99.90
1702;DHT22;848;48.354;10.064;2024-02-14T01:36:06;3.30;99.90
1702;DHT22;848;48.354;10.064;2024-02-14T01:38:34;3.40;99.90
1702;DHT22;848;48.354;10.064;2024-02-14T01:41:02;3.40;99.90
1702;DHT22;848;48.354;10.064;2024-02-14T01:43:29;3.40;99.90
1702;DHT22;848;48.354;10.064;2024-02-14T01:46:02;3.50;99.90
1702;DHT22;848;48.354;10.064;2024-02-14T01:48:31;3.50;99.90
1702;DHT22;848;48.354;10.064;2024-02-14T01:50:59;3.70;99.90
1702;DHT22;848;48.354;10.064;2024-02-14T01:53:27;3.60;99.90
1702;DHT22;848;48.354;10.064;2024-02-14T01:55:58;3.60;99.90
1702;DHT22;848;48.354;10.064;2024-02-14T01:58:25;3.70;99.90
1702;DHT22;848;48.354;10.064;2024-02-14T02:00:53;3.70;99.90
1702;DHT22;848;48.354;10.064;2024-02-14T02:03:23;3.60;99.90
1702;DHT22;848;48.354;10.064;2024-02-14T02:05:51;3.70;99.90
1702;DHT22;848;48.354;10.064;2024-02-14T02:08:19;3.70;99.90
1702;DHT22;848;48.354;10.064;2024-02-14T02:10:49;3.70;99.90
1702;DHT22;848;48.354;10.064;2024-02-14T02:13:17;3.90;99.90
1702;DHT22;848;48.354;10.064;2024-02-14T02:15:45;4.00;99.90
1702;DHT22;848;48.354;10.064;2024-02-14T02:18:12;4.00;99.90
1702;DHT22;848;48.354;10.064;2024-02-14T02:20:40;4.20;99.90
1702;DHT22;848;48.354;10.064;2024-02-14T02:23:10;4.20;99.90
1702;DHT22;848;48.354;10.064;2024-02-14T02:25:40;4.30;99.90
1702;DHT22;848;48.354;10.064;2024-02-14T02:28:07;4.40;99.90
1702;DHT22;848;48.354;10.064;2024-02-14T02:30:34;4.40;99.90
1702;DHT22;848;48.354;10.064;2024-02-14T02:33:02;4.50;99.90
1702;DHT22;848;48.354;10.064;2024-02-14T02:35:29;4.50;99.90
1702;DHT22;848;48.354;10.064;2024-02-14T02:37:56;4.60;99.90
1702;DHT22;848;48.354;10.064;2024-02-14T02:40:24;4.60;99.90
1702;DHT22;848;48.354;10.064;2024-02-14T02:42:52;4.70;99.90
1702;DHT22;848;48.354;10.064;2024-02-14T02:45:19;4.70;99.90
1702;DHT22;848;48.354;10.064;2024-02-14T02:47:46;4.80;99.90
1702;DHT22;848;48.354;10.064;2024-02-14T02:50:13;4.70;99.90
1702;DHT22;848;48.354;10.064;2024-02-14T02:52:40;4.80;99.90
1702;DHT22;848;48.354;10.064;2024-02-14T02:55:07;4.80;99.90
1702;DHT22;848;48.354;10.064;2024-02-14T02:57:35;4.90;99.90
1702;DHT22;848;48.354;10.064;2024-02-14T03:00:07;4.80;99.90
1702;DHT22;848;48.354;10.064;2024-02-14T03:02:35;4.90;99.90
1702;DHT22;848;48.354;10.064;2024-02-14T03:05:04;4.90;99.90
1702;DHT22;848;48.354;10.064;2024-02-14T03:07:35;4.90;99.90
1702;DHT22;848;48.354;10.064;2024-02-14T03:10:03;4.90;99.90
1702;DHT22;848;48.354;10.064;2024-02-14T03:12:30;5.00;99.90
1702;DHT22;848;48.354;10.064;2024-02-14T03:14:59;4.90;99.90
1702;DHT22;848;48.354;10.064;2024-02-14T03:17:29;4.90;99.90
1702;DHT22;848;48.354;10.064;2024-02-14T03:19:56;4.90;99.90
1702;DHT22;848;48.354;10.064;2024-02-14T03:22:23;5.00;99.90
1702;DHT22;848;48.354;10.064;2024-02-14T03:24:50;4.90;99.90
1702;DHT22;848;48.354;10.064;2024-02-14T03:27:17;5.00;99.90
1702;DHT22;848;48.354;10.064;2024-02-14T03:29:44;5.00;99.90
1702;DHT22;848;48.354;10.064;2024-02-14T03:32:14;5.00;99.90
1702;DHT22;848;48.354;10.064;2024-02-14T03:34:41;5.10;99.90
1702;DHT22;848;48.354;10.064;2024-02-14T03:37:07;5.10;99.90
1702;DHT22;848;48.354;10.064;2024-02-14T03:39:34;5.20;99.90
1702;DHT22;848;48.354;10.064;2024-02-14T03:42:02;5.20;99.90
1702;DHT22;848;48.354;10.064;2024-02-14T03:44:33;5.20;99.90
1702;DHT22;848;48.354;10.064;2024-02-14T03:46:59;5.20;99.90
1702;DHT22;848;48.354;10.064;2024-02-14T03:49:28;5.10;99.90
1702;DHT22;848;48.354;10.064;2024-02-14T03:51:56;5.20;99.90
1702;DHT22;848;48.354;10.064;2024-02-14T03:54:22;5.10;99.90
1702;DHT22;848;48.354;10.064;2024-02-14T03:56:50;5.10;99.90
1702;DHT22;848;48.354;10.064;2024-02-14T03:59:17;5.10;99.90
1702;DHT22;848;48.354;10.064;2024-02-14T04:01:49;5.20;99.90
1702;DHT22;848;48.354;10.064;2024-02-14T04:04:18;5.10;99.90
1702;DHT22;848;48.354;10.064;2024-02-14T04:06:47;5.20;99.90
1702;DHT22;848;48.354;10.064;2024-02-14T04:09:14;5.10;99.90
1702;DHT22;848;48.354;10.064;2024-02-14T04:11:40;5.10;99.90
1702;DHT22;848;48.354;10.064;2024-02-14T04:16:33;4.90;99.90
1702;DHT22;848;48.354;10.064;2024-02-14T04:19:02;4.70;99.90
1702;DHT22;848;48.354;10.064;2024-02-14T04:21:29;4.70;99.90
1702;DHT22;848;48.354;10.064;2024-02-14T04:23:58;4.60;99.90
1702;DHT22;848;48.354;10.064;2024-02-14T04:26:25;4.60;99.90
1702;DHT22;848;48.354;10.064;2024-02-14T04:28:52;4.70;99.90
1702;DHT22;848;48.354;10.064;2024-02-14T04:31:19;4.70;99.90
1702;DHT22;848;48.354;10.064;2024-02-14T04:33:49;4.80;99.90
1702;DHT22;848;48.354;10.064;2024-02-14T04:36:17;4.80;99.90
1702;DHT22;848;48.354;10.064;2024-02-14T04:38:46;4.90;99.90
1702;DHT22;848;48.354;10.064;2024-02-14T04:41:14;5.00;99.90
1702;DHT22;848;48.354;10.064;2024-02-14T04:43:42;5.00;99.90
1702;DHT22;848;48.354;10.064;2024-02-14T04:46:09;5.00;99.90
1702;DHT22;848;48.354;10.064;2024-02-14T04:48:36;5.10;99.90
1702;DHT22;848;48.354;10.064;2024-02-14T04:51:03;5.10;99.90
1702;DHT22;848;48.354;10.064;2024-02-14T04:53:30;5.20;99.90
1702;DHT22;848;48.354;10.064;2024-02-14T04:55:57;5.20;99.90
1702;DHT22;848;48.354;10.064;2024-02-14T04:58:25;5.10;99.90
1702;DHT22;848;48.354;10.064;2024-02-14T05:00:53;5.00;99.90
1702;DHT22;848;48.354;10.064;2024-02-14T05:03:20;4.90;99.90
1702;DHT22;848;48.354;10.064;2024-02-14T05:05:49;4.90;99.90
1702;DHT22;848;48.354;10.064;2024-02-14T05:08:16;5.00;99.90
1702;DHT22;848;48.354;10.064;2024-02-14T05:11:10;5.30;99.90
1702;DHT22;848;48.354;10.064;2024-02-14T05:13:39;5.20;99.90
1702;DHT22;848;48.354;10.064;2024-02-14T05:16:07;5.20;99.90
1702;DHT22;848;48.354;10.064;2024-02-14T05:18:36;5.30;99.90
1702;DHT22;848;48.354;10.064;2024-02-14T05:21:05;5.40;99.90
1702;DHT22;848;48.354;10.064;2024-02-14T05:23:32;5.40;99.90
1702;DHT22;848;48.354;10.064;2024-02-14T05:25:59;5.40;99.90
1702;DHT22;848;48.354;10.064;2024-02-14T05:28:27;5.40;99.90
1702;DHT22;848;48.354;10.064;2024-02-14T05:30:56;5.50;99.90
1702;DHT22;848;48.354;10.064;2024-02-14T05:33:23;5.50;99.90
1702;DHT22;848;48.354;10.064;2024-02-14T05:35:50;5.50;99.90
1702;DHT22;848;48.354;10.064;2024-02-14T05:38:17;5.50;99.90
1702;DHT22;848;48.354;10.064;2024-02-14T05:40:45;5.50;99.90
1702;DHT22;848;48.354;10.064;2024-02-14T05:43:12;5.60;99.90
1702;DHT22;848;48.354;10.064;2024-02-14T05:45:39;5.40;99.90
1702;DHT22;848;48.354;10.064;2024-02-14T05:48:08;5.40;99.90
1702;DHT22;848;48.354;10.064;2024-02-14T05:50:35;5.40;99.90
1702;DHT22;848;48.354;10.064;2024-02-14T05:53:02;5.40;99.90
1702;DHT22;848;48.354;10.064;2024-02-14T05:55:29;5.40;99.90
1702;DHT22;848;48.354;10.064;2024-02-14T05:57:56;5.30;99.90
1702;DHT22;848;48.354;10.064;2024-02-14T06:00:25;5.40;99.90
1702;DHT22;848;48.354;10.064;2024-02-14T06:02:52;5.30;99.90
1702;DHT22;848;48.354;10.064;2024-02-14T06:05:20;5.50;99.90
1702;DHT22;848;48.354;10.064;2024-02-14T06:07:47;5.40;99.90
1702;DHT22;848;48.354;10.064;2024-02-14T06:10:14;5.40;99.90
1702;DHT22;848;48.354;10.064;2024-02-14T06:12:40;5.50;99.90
1702;DHT22;848;48.354;10.064;2024-02-14T06:15:09;5.60;99.90
1702;DHT22;848;48.354;10.064;2024-02-14T06:17:36;5.60;99.90
1702;DHT22;848;48.354;10.064;2024-02-14T06:20:03;5.70;99.90
1702;DHT22;848;48.354;10.064;2024-02-14T06:22:34;5.70;99.90
1702;DHT22;848;48.354;10.064;2024-02-14T06:25:01;5.70;99.90
1702;DHT22;848;48.354;10.064;2024-02-14T06:27:30;5.70;99.90
1702;DHT22;848;48.354;10.064;2024-02-14T06:29:57;5.80;99.90
1702;DHT22;848;48.354;10.064;2024-02-14T06:32:25;5.80;99.90
1702;DHT22;848;48.354;10.064;2024-02-14T06:34:52;5.80;99.90
1702;DHT22;848;48.354;10.064;2024-02-14T06:37:18;5.80;99.90
1702;DHT22;848;48.354;10.064;2024-02-14T06:39:47;5.90;99.90
1702;DHT22;848;48.354;10.064;2024-02-14T06:42:15;5.80;99.90
1702;DHT22;848;48.354;10.064;2024-02-14T06:44:42;5.90;99.90
1702;DHT22;848;48.354;10.064;2024-02-14T06:47:08;5.90;99.90
1702;DHT22;848;48.354;10.064;2024-02-14T06:49:35;5.90;99.90
1702;DHT22;848;48.354;10.064;2024-02-14T06:52:03;6.10;99.90
1702;DHT22;848;48.354;10.064;2024-02-14T06:54:30;6.00;99.90
1702;DHT22;848;48.354;10.064;2024-02-14T06:56:59;6.00;99.90
1702;DHT22;848;48.354;10.064;2024-02-14T06:59:26;6.20;99.90
1702;DHT22;848;48.354;10.064;2024-02-14T07:01:53;6.00;99.90
1702;DHT22;848;48.354;10.064;2024-02-14T07:04:20;6.10;99.90
1702;DHT22;848;48.354;10.064;2024-02-14T07:06:51;6.10;99.90
1702;DHT22;848;48.354;10.064;2024-02-14T07:09:18;6.10;99.90
1702;DHT22;848;48.354;10.064;2024-02-14T07:11:45;6.10;99.90
1702;DHT22;848;48.354;10.064;2024-02-14T07:14:13;6.20;99.90
1702;DHT22;848;48.354;10.064;2024-02-14T07:16:40;6.10;99.90
1702;DHT22;848;48.354;10.064;2024-02-14T07:19:07;6.20;99.90
1702;DHT22;848;48.354;10.064;2024-02-14T07:21:34;6.20;99.90
1702;DHT22;848;48.354;10.064;2024-02-14T07:24:05;6.50;99.90
1702;DHT22;848;48.354;10.064;2024-02-14T07:26:32;6.30;99.90
1702;DHT22;848;48.354;10.064;2024-02-14T07:28:59;6.30;99.90
1702;DHT22;848;48.354;10.064;2024-02-14T07:31:30;6.30;99.90
1702;DHT22;848;48.354;10.064;2024-02-14T07:33:59;6.30;99.90
1702;DHT22;848;48.354;10.064;2024-02-14T07:36:25;6.30;99.90
1702;DHT22;848;48.354;10.064;2024-02-14T07:38:52;6.30;99.90
1702;DHT22;848;48.354;10.064;2024-02-14T07:41:19;6.30;99.90
1702;DHT22;848;48.354;10.064;2024-02-14T07:43:46;6.50;99.90
1702;DHT22;848;48.354;10.064;2024-02-14T07:46:17;6.40;99.90
1702;DHT22;848;48.354;10.064;2024-02-14T07:48:45;6.40;99.90
1702;DHT22;848;48.354;10.064;2024-02-14T07:51:12;6.40;99.90
1702;DHT22;848;48.354;10.064;2024-02-14T07:53:39;6.50;99.90
1702;DHT22;848;48.354;10.064;2024-02-14T07:56:06;6.50;99.90
1702;DHT22;848;48.354;10.064;2024-02-14T07:58:33;6.50;99.90
1702;DHT22;848;48.354;10.064;2024-02-14T08:01:00;6.50;99.90
1702;DHT22;848;48.354;10.064;2024-02-14T08:03:29;6.50;99.90
1702;DHT22;848;48.354;10.064;2024-02-14T08:05:57;6.70;99.90
1702;DHT22;848;48.354;10.064;2024-02-14T08:08:26;6.60;99.90
1702;DHT22;848;48.354;10.064;2024-02-14T08:10:53;6.80;99.90
1702;DHT22;848;48.354;10.064;2024-02-14T08:13:21;6.90;99.90
1702;DHT22;848;48.354;10.064;2024-02-14T08:15:48;6.90;99.90
1702;DHT22;848;48.354;10.064;2024-02-14T08:18:15;7.00;99.90
1702;DHT22;848;48.354;10.064;2024-02-14T08:20:42;7.20;99.90
1702;DHT22;848;48.354;10.064;2024-02-14T08:23:10;7.10;99.90
1702;DHT22;848;48.354;10.064;2024-02-14T08:25:37;7.20;99.90
1702;DHT22;848;48.354;10.064;2024-02-14T08:28:04;7.30;99.90
1702;DHT22;848;48.354;10.064;2024-02-14T08:30:33;7.40;99.90
1702;DHT22;848;48.354;10.064;2024-02-14T08:33:00;7.40;99.90
1702;DHT22;848;48.354;10.064;2024-02-14T08:35:27;7.40;99.90
1702;DHT22;848;48.354;10.064;2024-02-14T08:37:54;7.30;99.90
1702;DHT22;848;48.354;10.064;2024-02-14T08:40:22;7.30;99.90
1702;DHT22;848;48.354;10.064;2024-02-14T08:42:49;7.30;99.90
1702;DHT22;848;48.354;10.064;2024-02-14T08:45:16;7.40;99.90
1702;DHT22;848;48.354;10.064;2024-02-14T08:47:43;7.50;99.90
1702;DHT22;848;48.354;10.064;2024-02-14T08:50:11;7.60;99.90
1702;DHT22;848;48.354;10.064;2024-02-14T08:52:37;7.80;99.90
1702;DHT22;848;48.354;10.064;2024-02-14T08:55:05;7.60;99.90
1702;DHT22;848;48.354;10.064;2024-02-14T08:57:37;7.60;99.90
1702;DHT22;848;48.354;10.064;2024-02-14T09:00:06;7.60;99.90
1702;DHT22;848;48.354;10.064;2024-02-14T09:02:33;7.70;99.90
1702;DHT22;848;48.354;10.064;2024-02-14T09:05:00;7.80;99.90
1702;DHT22;848;48.354;10.064;2024-02-14T09:07:29;7.90;99.90
1702;DHT22;848;48.354;10.064;2024-02-14T09:09:57;8.00;99.90
1702;DHT22;848;48.354;10.064;2024-02-14T09:12:24;8.20;99.90
1702;DHT22;848;48.354;10.064;2024-02-14T09:14:52;8.10;99.90
1702;DHT22;848;48.354;10.064;2024-02-14T09:17:19;8.10;99.90
1702;DHT22;848;48.354;10.064;2024-02-14T09:19:45;8.10;99.90
1702;DHT22;848;48.354;10.064;2024-02-14T09:22:12;8.10;99.90
1702;DHT22;848;48.354;10.064;2024-02-14T09:24:44;8.20;99.90
1702;DHT22;848;48.354;10.064;2024-02-14T09:27:10;8.30;99.90
1702;DHT22;848;48.354;10.064;2024-02-14T09:29:37;8.40;99.90
1702;DHT22;848;48.354;10.064;2024-02-14T09:32:06;8.40;99.90
1702;DHT22;848;48.354;10.064;2024-02-14T09:34:33;8.60;99.90
1702;DHT22;848;48.354;10.064;2024-02-14T09:37:00;8.40;99.90
1702;DHT22;848;48.354;10.064;2024-02-14T09:39:27;8.40;99.90
1702;DHT22;848;48.354;10.064;2024-02-14T09:41:56;8.50;99.90
1702;DHT22;848;48.354;10.064;2024-02-14T09:44:25;8.50;99.90
1702;DHT22;848;48.354;10.064;2024-02-14T09:46:55;8.50;99.90
1702;DHT22;848;48.354;10.064;2024-02-14T09:49:23;8.40;99.90
1702;DHT22;848;48.354;10.064;2024-02-14T09:51:50;8.40;99.90
1702;DHT22;848;48.354;10.064;2024-02-14T09:54:19;8.50;99.90
1702;DHT22;848;48.354;10.064;2024-02-14T09:56:48;8.50;99.90
1702;DHT22;848;48.354;10.064;2024-02-14T09:59:19;8.50;99.90
1702;DHT22;848;48.354;10.064;2024-02-14T10:01:46;8.50;99.90
1702;DHT22;848;48.354;10.064;2024-02-14T10:04:16;8.60;99.90
1702;DHT22;848;48.354;10.064;2024-02-14T10:06:46;8.50;99.90
1702;DHT22;848;48.354;10.064;2024-02-14T10:09:19;8.80;99.90
1702;DHT22;848;48.354;10.064;2024-02-14T10:11:46;8.70;99.90
1702;DHT22;848;48.354;10.064;2024-02-14T10:14:13;8.70;99.90
1702;DHT22;848;48.354;10.064;2024-02-14T10:17:19;8.70;99.90
1702;DHT22;848;48.354;10.064;2024-02-14T10:19:57;8.80;99.90
1702;DHT22;848;48.354;10.064;2024-02-14T10:22:24;8.90;99.90
1702;DHT22;848;48.354;10.064;2024-02-14T10:24:51;9.10;99.90
1702;DHT22;848;48.354;10.064;2024-02-14T10:27:18;9.20;99.90
1702;DHT22;848;48.354;10.064;2024-02-14T10:29:45;9.10;99.90
1702;DHT22;848;48.354;10.064;2024-02-14T10:32:15;9.20;99.90
1702;DHT22;848;48.354;10.064;2024-02-14T10:34:44;9.30;99.90
1702;DHT22;848;48.354;10.064;2024-02-14T10:37:14;9.30;99.90
1702;DHT22;848;48.354;10.064;2024-02-14T10:39:42;9.40;99.90
1702;DHT22;848;48.354;10.064;2024-02-14T10:42:10;9.50;99.90
1702;DHT22;848;48.354;10.064;2024-02-14T10:44:36;9.70;99.90
1702;DHT22;848;48.354;10.064;2024-02-14T10:47:06;9.80;99.90
1702;DHT22;848;48.354;10.064;2024-02-14T10:49:37;10.10;99.90
1702;DHT22;848;48.354;10.064;2024-02-14T10:52:08;9.90;99.90
1702;DHT22;848;48.354;10.064;2024-02-14T10:54:35;9.90;99.90
1702;DHT22;848;48.354;10.064;2024-02-14T10:57:06;9.80;99.90
1702;DHT22;848;48.354;10.064;2024-02-14T10:59:40;9.80;99.90
1702;DHT22;848;48.354;10.064;2024-02-14T11:02:08;9.80;99.90
1702;DHT22;848;48.354;10.064;2024-02-14T11:04:36;9.60;99.90
1702;DHT22;848;48.354;10.064;2024-02-14T11:07:10;9.50;99.90
1702;DHT22;848;48.354;10.064;2024-02-14T11:09:41;9.40;99.90
1702;DHT22;848;48.354;10.064;2024-02-14T11:12:09;9.40;99.90
1702;DHT22;848;48.354;10.064;2024-02-14T11:14:37;9.40;99.90
1702;DHT22;848;48.354;10.064;2024-02-14T11:17:09;9.50;99.90
1702;DHT22;848;48.354;10.064;2024-02-14T11:19:35;9.50;99.90
1702;DHT22;848;48.354;10.064;2024-02-14T11:22:12;9.50;99.90
1702;DHT22;848;48.354;10.064;2024-02-14T11:24:39;9.60;99.90
1702;DHT22;848;48.354;10.064;2024-02-14T11:27:10;9.60;99.90
1702;DHT22;848;48.354;10.064;2024-02-14T11:29:39;9.60;99.90
1702;DHT22;848;48.354;10.064;2024-02-14T11:32:07;9.70;99.90
1702;DHT22;848;48.354;10.064;2024-02-14T11:34:35;9.80;99.90
1702;DHT22;848;48.354;10.064;2024-02-14T11:37:02;9.80;99.90
1702;DHT22;848;48.354;10.064;2024-02-14T11:39:33;9.80;99.90
1702;DHT22;848;48.354;10.064;2024-02-14T11:42:00;9.90;99.90
1702;DHT22;848;48.354;10.064;2024-02-14T11:44:27;9.80;99.90
1702;DHT22;848;48.354;10.064;2024-02-14T11:46:54;9.90;99.90
1702;DHT22;848;48.354;10.064;2024-02-14T11:49:22;10.00;99.90
1702;DHT22;848;48.354;10.064;2024-02-14T11:51:49;10.10;99.90
1702;DHT22;848;48.354;10.064;2024-02-14T11:54:16;10.00;99.90
1702;DHT22;848;48.354;10.064;2024-02-14T11:56:47;10.00;99.90
1702;DHT22;848;48.354;10.064;2024-02-14T11:59:15;10.30;99.90
1702;DHT22;848;48.354;10.064;2024-02-14T12:01:45;10.10;99.90
1702;DHT22;848;48.354;10.064;2024-02-14T12:04:14;10.10;99.90
1702;DHT22;848;48.354;10.064;2024-02-14T12:06:41;10.20;99.90
1702;DHT22;848;48.354;10.064;2024-02-14T12:09:09;10.20;99.90
1702;DHT22;848;48.354;10.064;2024-02-14T12:11:41;10.40;99.90
1702;DHT22;848;48.354;10.064;2024-02-14T12:14:10;10.50;99.90
1702;DHT22;848;48.354;10.064;2024-02-14T12:16:38;10.60;99.90
1702;DHT22;848;48.354;10.064;2024-02-14T12:19:06;10.60;99.90
1702;DHT22;848;48.354;10.064;2024-02-14T12:21:35;10.70;99.90
1702;DHT22;848;48.354;10.064;2024-02-14T12:24:03;10.80;99.90
1702;DHT22;848;48.354;10.064;2024-02-14T12:26:30;10.80;99.90
1702;DHT22;848;48.354;10.064;2024-02-14T12:28:57;10.80;99.90
1702;DHT22;848;48.354;10.064;2024-02-14T12:31:26;10.80;99.90
1702;DHT22;848;48.354;10.064;2024-02-14T12:33:53;10.90;99.90
1702;DHT22;848;48.354;10.064;2024-02-14T12:36:21;11.00;99.90
1702;DHT22;848;48.354;10.064;2024-02-14T12:38:48;11.00;99.90
1702;DHT22;848;48.354;10.064;2024-02-14T12:41:15;11.10;99.90
1702;DHT22;848;48.354;10.064;2024-02-14T12:43:42;11.20;99.90
1702;DHT22;848;48.354;10.064;2024-02-14T12:46:09;11.40;99.90
1702;DHT22;848;48.354;10.064;2024-02-14T12:48:37;11.40;99.90
1702;DHT22;848;48.354;10.064;2024-02-14T12:51:04;11.60;99.90
1702;DHT22;848;48.354;10.064;2024-02-14T12:53:32;11.60;99.90
1702;DHT22;848;48.354;10.064;2024-02-14T12:55:59;11.80;99.90
1702;DHT22;848;48.354;10.064;2024-02-14T12:58:28;11.80;99.90
1702;DHT22;848;48.354;10.064;2024-02-14T13:00:55;11.90;99.90
1702;DHT22;848;48.354;10.064;2024-02-14T13:03:21;12.00;99.90
1702;DHT22;848;48.354;10.064;2024-02-14T13:05:50;12.00;99.90
1702;DHT22;848;48.354;10.064;2024-02-14T13:08:18;12.10;99.90
1702;DHT22;848;48.354;10.064;2024-02-14T13:10:46;12.20;99.90
1702;DHT22;848;48.354;10.064;2024-02-14T13:13:13;12.30;99.90
1702;DHT22;848;48.354;10.064;2024-02-14T13:15:40;12.30;99.90
1702;DHT22;848;48.354;10.064;2024-02-14T13:18:08;12.40;99.90
1702;DHT22;848;48.354;10.064;2024-02-14T13:20:35;12.40;99.90
1702;DHT22;848;48.354;10.064;2024-02-14T13:23:04;12.40;99.90
1702;DHT22;848;48.354;10.064;2024-02-14T13:25:35;12.40;99.90
1702;DHT22;848;48.354;10.064;2024-02-14T13:28:02;12.40;99.90
1702;DHT22;848;48.354;10.064;2024-02-14T13:30:29;12.40;99.90
1702;DHT22;848;48.354;10.064;2024-02-14T13:32:56;12.40;99.90
1702;DHT22;848;48.354;10.064;2024-02-14T13:35:23;12.40;99.90
1702;DHT22;848;48.354;10.064;2024-02-14T13:37:50;12.40;99.90
1702;DHT22;848;48.354;10.064;2024-02-14T13:40:18;12.40;99.90
1702;DHT22;848;48.354;10.064;2024-02-14T13:42:45;12.40;99.90
1702;DHT22;848;48.354;10.064;2024-02-14T13:45:12;12.40;99.90
1702;DHT22;848;48.354;10.064;2024-02-14T13:47:39;12.50;99.90
1702;DHT22;848;48.354;10.064;2024-02-14T13:50:08;12.50;99.90
1702;DHT22;848;48.354;10.064;2024-02-14T13:52:35;12.50;99.90
1702;DHT22;848;48.354;10.064;2024-02-14T13:55:03;12.40;99.90
1702;DHT22;848;48.354;10.064;2024-02-14T13:57:33;12.40;99.90
1702;DHT22;848;48.354;10.064;2024-02-14T14:00:00;12.40;99.90
1702;DHT22;848;48.354;10.064;2024-02-14T14:02:27;12.40;99.90
1702;DHT22;848;48.354;10.064;2024-02-14T14:04:54;12.40;99.90
1702;DHT22;848;48.354;10.064;2024-02-14T14:07:21;12.30;99.90
1702;DHT22;848;48.354;10.064;2024-02-14T14:09:49;12.30;99.90
1702;DHT22;848;48.354;10.064;2024-02-14T14:12:16;12.30;99.90
1702;DHT22;848;48.354;10.064;2024-02-14T14:14:44;12.30;99.90
1702;DHT22;848;48.354;10.064;2024-02-14T14:17:11;12.30;99.90
1702;DHT22;848;48.354;10.064;2024-02-14T14:19:38;12.30;99.90
1702;DHT22;848;48.354;10.064;2024-02-14T14:22:05;12.30;99.90
1702;DHT22;848;48.354;10.064;2024-02-14T14:24:32;12.30;99.90
1702;DHT22;848;48.354;10.064;2024-02-14T14:26:59;12.40;99.90
1702;DHT22;848;48.354;10.064;2024-02-14T14:29:26;12.30;99.90
1702;DHT22;848;48.354;10.064;2024-02-14T14:31:55;12.30;99.90
1702;DHT22;848;48.354;10.064;2024-02-14T14:34:22;12.30;99.90
1702;DHT22;848;48.354;10.064;2024-02-14T14:36:49;12.30;99.90
1702;DHT22;848;48.354;10.064;2024-02-14T14:39:16;12.30;99.90
1702;DHT22;848;48.354;10.064;2024-02-14T14:41:45;12.20;99.90
1702;DHT22;848;48.354;10.064;2024-02-14T14:44:12;12.20;99.90
1702;DHT22;848;48.354;10.064;2024-02-14T14:46:39;12.20;99.90
1702;DHT22;848;48.354;10.064;2024-02-14T14:49:11;12.20;99.90
1702;DHT22;848;48.354;10.064;2024-02-14T14:51:38;12.20;99.90
1702;DHT22;848;48.354;10.064;2024-02-14T14:54:05;12.20;99.90
1702;DHT22;848;48.354;10.064;2024-02-14T14:56:32;12.20;99.90
1702;DHT22;848;48.354;10.064;2024-02-14T14:58:59;12.20;99.90
1702;DHT22;848;48.354;10.064;2024-02-14T15:01:29;12.20;99.90
1702;DHT22;848;48.354;10.064;2024-02-14T15:03:56;12.20;99.90
1702;DHT22;848;48.354;10.064;2024-02-14T15:06:25;12.20;99.90
1702;DHT22;848;48.354;10.064;2024-02-14T15:08:52;12.30;99.90
1702;DHT22;848;48.354;10.064;2024-02-14T15:11:18;12.20;99.90
1702;DHT22;848;48.354;10.064;2024-02-14T15:13:46;12.20;99.90
1702;DHT22;848;48.354;10.064;2024-02-14T15:16:14;12.20;99.90
1702;DHT22;848;48.354;10.064;2024-02-14T15:18:40;12.30;99.90
1702;DHT22;848;48.354;10.064;2024-02-14T15:21:09;12.20;99.90
1702;DHT22;848;48.354;10.064;2024-02-14T15:23:37;12.20;99.90
1702;DHT22;848;48.354;10.064;2024-02-14T15:26:04;12.10;99.90
1702;DHT22;848;48.354;10.064;2024-02-14T15:28:32;12.20;99.90
1702;DHT22;848;48.354;10.064;2024-02-14T15:31:05;12.10;99.90
1702;DHT22;848;48.354;10.064;2024-02-14T15:33:50;12.10;99.90
1702;DHT22;848;48.354;10.064;2024-02-14T15:36:17;12.10;99.90
1702;DHT22;848;48.354;10.064;2024-02-14T15:38:45;12.10;99.90
1702;DHT22;848;48.354;10.064;2024-02-14T15:41:12;12.10;99.90
1702;DHT22;848;48.354;10.064;2024-02-14T15:43:40;12.00;99.90
1702;DHT22;848;48.354;10.064;2024-02-14T15:46:09;12.10;99.90
1702;DHT22;848;48.354;10.064;2024-02-14T15:48:36;12.00;99.90
1702;DHT22;848;48.354;10.064;2024-02-14T15:51:03;12.10;99.90
1702;DHT22;848;48.354;10.064;2024-02-14T15:53:30;12.00;99.90
1702;DHT22;848;48.354;10.064;2024-02-14T15:55:59;12.00;99.90
1702;DHT22;848;48.354;10.064;2024-02-14T15:58:27;12.00;99.90
1702;DHT22;848;48.354;10.064;2024-02-14T16:00:54;11.90;99.90
1702;DHT22;848;48.354;10.064;2024-02-14T16:03:21;11.90;99.90
1702;DHT22;848;48.354;10.064;2024-02-14T16:05:48;11.90;99.90
1702;DHT22;848;48.354;10.064;2024-02-14T16:08:16;11.80;99.90
1702;DHT22;848;48.354;10.064;2024-02-14T16:10:42;11.80;99.90
1702;DHT22;848;48.354;10.064;2024-02-14T16:13:11;11.90;99.90
1702;DHT22;848;48.354;10.064;2024-02-14T16:15:38;11.70;99.90
1702;DHT22;848;48.354;10.064;2024-02-14T16:18:05;11.60;99.90